Dubrovnik, Hrvatska

10:28 PM CET on Prosinac 21, 2014 (GMT +0100)
Cilipi | Change Station
CLOSE
Current Station
Zračna luka
Location: Dubrovnik,
Visina: 541 ft
Nearby Weather Stations

Elev 541 ft 42.56 °N, 18.27 °E | Updated 28 minutes ago

Clear
Vedro
46 °F
Feels Like 44 °F
S
6
Vjetar Varijabla smjera vjetra Vjetar from Varijabla smjera vjetra

Danas
High -- | Low -- °F
--% Chance of Precip.
Jučer
High -- | Low -- °F
Precip. -- u
7:13 AM 4:16 PM
Mlađak, 0% visible
Pritisak 30.48 u
Vidljivost -9999.0 milja
Oblaci
Subjektivni osjećaj 44 °F
Točka rose 21 °F
Vlažnost 37%
Kiša 0.00 u
Visina snijega Not available.
UV Not available.
Pollen Not available.
Kvalitet zraka Not available.
Flu Activity Not available.
METAR LDDU 212100Z VRB05KT CAVOK 08/M06 Q1032 BECMG 01012KT

More Conditions Fewer Conditions

Pritisak 30.48 u
Vidljivost -9999.0 milja
Oblaci
Subjektivni osjećaj 44 °F
Točka rose 21 °F
Vlažnost 37%
Kiša 0.00 u
Visina snijega Not available.
UV Not available.
Pollen Not available.
Kvalitet zraka Not available.
Flu Activity Not available.
METAR LDDU 212100Z VRB05KT CAVOK 08/M06 Q1032 BECMG 01012KT

More Conditions Fewer Conditions

10-Day Weather Forecast

Almanac

Astronomija

Dec. 21, 2014 Izlazak Zalazak
Trenutno vrijeme
Civilni sumrak
Nautički sumrak
Astronomski sumrak
Moon
Duljina trajanja vidljive svjetlosti
Duljina dana
Tomorrow will be .
, % of the Moon is Illuminated

Današnji ekstremi

Country Highs Country Lows

Community

WunderPhotos

Upload Photos

1,779,482 photos uploaded!

WunderBlogs® & News

Nearby

Kvalitet zraka

  Kvalitet zraka AQ Index Zagadjenje
Not available.

Visina snijega

Station Depth Visina

Earthquake Activity

Grad Distance Mag. Time & Date
Minimum magnitude displayed is 2.5.

Coastal Water Temperatures

Mjesto Temperatura

Nearby Weather Stations